createdAt,value
2018-04-07T00:01:45.761Z,5.03
2018-04-07T00:04:14.784Z,7.37
2018-04-07T00:06:43.112Z,5.60
2018-04-07T00:09:11.477Z,13.77
2018-04-07T00:11:39.825Z,6.53
2018-04-07T00:14:08.137Z,7.97
2018-04-07T00:16:36.405Z,7.20
2018-04-07T00:19:04.700Z,5.30
2018-04-07T00:21:32.960Z,8.90
2018-04-07T00:24:01.229Z,12.87
2018-04-07T00:26:29.504Z,9.83
2018-04-07T00:28:58.579Z,7.10
2018-04-07T00:31:26.869Z,6.30
2018-04-07T00:33:55.138Z,6.83
2018-04-07T00:36:23.414Z,4.50
2018-04-07T00:38:51.680Z,7.63
2018-04-07T00:41:19.962Z,7.10
2018-04-07T00:43:48.216Z,7.77
2018-04-07T00:46:16.501Z,5.70
2018-04-07T00:48:44.768Z,4.50
2018-04-07T00:51:13.100Z,7.00
2018-04-07T00:53:41.358Z,7.00
2018-04-07T00:56:09.612Z,5.67
2018-04-07T00:58:37.899Z,5.60
2018-04-07T01:01:06.148Z,5.93
2018-04-07T01:03:34.435Z,6.10
2018-04-07T01:06:02.691Z,5.50
2018-04-07T01:08:31.845Z,8.83
2018-04-07T01:11:00.100Z,6.20
2018-04-07T01:13:28.400Z,8.17
2018-04-07T01:15:56.649Z,6.40
2018-04-07T01:18:24.953Z,10.37
2018-04-07T01:20:53.219Z,7.83
2018-04-07T01:23:21.492Z,8.27
2018-04-07T01:25:49.752Z,10.13
2018-04-07T01:28:18.043Z,5.60
2018-04-07T01:30:46.332Z,9.10
2018-04-07T01:33:14.628Z,8.13
2018-04-07T01:35:44.417Z,8.03
2018-04-07T01:38:12.680Z,7.93
2018-04-07T01:40:40.981Z,5.63
2018-04-07T01:43:09.258Z,6.83
2018-04-07T01:45:37.532Z,7.63
2018-04-07T01:48:05.820Z,7.10
2018-04-07T01:50:35.608Z,7.03
2018-04-07T01:53:03.869Z,7.70
2018-04-07T01:55:32.394Z,7.23
2018-04-07T01:58:00.642Z,8.43
2018-04-07T02:00:28.938Z,8.33
2018-04-07T02:02:57.187Z,9.23
2018-04-07T02:05:25.507Z,7.70
2018-04-07T02:07:53.751Z,6.10
2018-04-07T02:10:22.028Z,5.10
2018-04-07T02:12:50.280Z,6.30
2018-04-07T02:15:18.562Z,8.80
2018-04-07T02:17:46.826Z,8.80
2018-04-07T02:20:15.877Z,7.57
2018-04-07T02:22:44.145Z,4.40
2018-04-07T02:25:12.429Z,8.63
2018-04-07T02:27:40.704Z,8.83
2018-04-07T02:30:08.994Z,5.87
2018-04-07T02:32:38.771Z,4.80
2018-04-07T02:35:07.052Z,7.83
2018-04-07T02:37:35.373Z,7.77
2018-04-07T02:40:04.652Z,4.30
2018-04-07T02:42:32.946Z,10.50
2018-04-07T02:45:02.025Z,8.27
2018-04-07T02:47:30.404Z,11.20
2018-04-07T02:50:00.364Z,5.70
2018-04-07T02:52:29.518Z,7.40
2018-04-07T02:54:57.751Z,7.77
2018-04-07T02:57:26.049Z,11.33
2018-04-07T02:59:54.309Z,8.80
2018-04-07T03:02:22.616Z,6.43
2018-04-07T03:04:50.858Z,6.73
2018-04-07T03:07:19.158Z,8.47
2018-04-07T03:09:47.413Z,9.23
2018-04-07T03:12:15.692Z,9.30
2018-04-07T03:14:44.013Z,14.03
2018-04-07T03:17:12.299Z,10.73
2018-04-07T03:19:41.351Z,8.27
2018-04-07T03:22:10.585Z,6.43
2018-04-07T03:24:38.864Z,8.77
2018-04-07T03:27:07.232Z,6.93
2018-04-07T03:29:35.500Z,4.87
2018-04-07T03:32:03.776Z,9.47
2018-04-07T03:34:32.029Z,6.80
2018-04-07T03:37:00.351Z,6.07
2018-04-07T03:39:29.688Z,5.97
2018-04-07T03:41:58.722Z,12.73
2018-04-07T03:44:26.988Z,10.97
2018-04-07T03:46:55.244Z,8.07
2018-04-07T03:49:24.279Z,9.13
2018-04-07T03:51:52.560Z,9.27
2018-04-07T03:54:20.954Z,12.77
2018-04-07T03:56:49.232Z,12.80
2018-04-07T03:59:17.503Z,9.77
2018-04-07T04:01:45.788Z,9.00
2018-04-07T04:04:14.057Z,9.93
2018-04-07T04:06:42.442Z,6.00
2018-04-07T04:09:10.741Z,8.63
2018-04-07T04:11:40.483Z,7.03
2018-04-07T04:14:08.773Z,9.40
2018-04-07T04:16:37.028Z,10.40
2018-04-07T04:19:06.187Z,8.40
2018-04-07T04:21:34.563Z,7.33
2018-04-07T04:24:02.850Z,11.23
2018-04-07T04:26:31.117Z,7.77
2018-04-07T04:28:59.393Z,13.47
2018-04-07T04:31:27.658Z,6.53
2018-04-07T04:33:55.928Z,8.17
2018-04-07T04:36:24.335Z,9.83
2018-04-07T04:38:52.604Z,10.10
2018-04-07T04:41:20.907Z,9.97
2018-04-07T04:43:49.176Z,9.10
2018-04-07T04:46:17.537Z,11.17
2018-04-07T04:48:45.830Z,13.63
2018-04-07T04:51:14.920Z,14.47
2018-04-07T04:53:43.168Z,12.13
2018-04-07T04:56:11.458Z,11.90
2018-04-07T04:58:39.737Z,7.07
2018-04-07T05:01:08.026Z,11.43
2018-04-07T05:03:36.299Z,10.03
2018-04-07T05:06:04.795Z,10.63
2018-04-07T05:08:33.832Z,11.63
2018-04-07T05:11:02.112Z,13.60
2018-04-07T05:13:30.387Z,14.23
2018-04-07T05:15:58.686Z,12.57
2018-04-07T05:18:26.945Z,10.97
2018-04-07T05:20:55.271Z,15.43
2018-04-07T05:23:23.540Z,11.03
2018-04-07T05:25:51.928Z,17.90
2018-04-07T05:28:20.169Z,9.80
2018-04-07T05:30:48.465Z,7.67
2018-04-07T05:33:16.720Z,12.10
2018-04-07T05:35:45.035Z,12.27
2018-04-07T05:38:13.340Z,10.03
2018-04-07T05:40:41.589Z,12.60
2018-04-07T05:43:09.862Z,8.37
2018-04-07T05:45:38.137Z,13.13
2018-04-07T05:48:06.533Z,7.93
2018-04-07T05:50:36.302Z,9.20
2018-04-07T05:53:04.608Z,12.10
2018-04-07T05:55:32.883Z,13.23
2018-04-07T05:58:01.162Z,9.57
2018-04-07T06:00:30.340Z,13.17
2018-04-07T06:02:58.603Z,10.30
2018-04-07T06:05:26.888Z,12.40
2018-04-07T06:07:55.187Z,8.67
2018-04-07T06:10:23.433Z,9.73
2018-04-07T06:12:51.708Z,9.67
2018-04-07T06:15:20.105Z,12.93
2018-04-07T06:17:48.386Z,7.67
2018-04-07T06:20:16.658Z,12.63
2018-04-07T06:22:44.940Z,7.63
2018-04-07T06:25:13.220Z,8.60
2018-04-07T06:27:41.517Z,10.20
2018-04-07T06:30:09.774Z,11.90
2018-04-07T06:32:38.056Z,13.23
2018-04-07T06:35:06.422Z,7.73
2018-04-07T06:37:34.729Z,10.10
2018-04-07T06:40:03.093Z,10.87
2018-04-07T06:42:31.460Z,8.10
2018-04-07T06:44:59.713Z,7.33
2018-04-07T06:47:28.012Z,10.60
2018-04-07T06:49:56.269Z,7.40
2018-04-07T06:52:24.552Z,9.07
2018-04-07T06:54:52.799Z,11.07
2018-04-07T06:57:21.212Z,12.10
2018-04-07T06:59:49.487Z,9.10
2018-04-07T07:02:17.777Z,9.83
2018-04-07T07:04:46.045Z,10.20
2018-04-07T07:07:14.337Z,9.63
2018-04-07T07:09:42.583Z,7.47
2018-04-07T07:12:10.881Z,8.30
2018-04-07T07:14:39.151Z,7.87
2018-04-07T07:17:07.547Z,13.17
2018-04-07T07:19:35.801Z,9.03
2018-04-07T07:22:04.201Z,7.83
2018-04-07T07:24:32.467Z,6.20
2018-04-07T07:27:00.728Z,9.17
2018-04-07T07:29:29.023Z,8.20
2018-04-07T07:31:57.251Z,8.13
2018-04-07T07:34:26.303Z,8.10
2018-04-07T07:36:54.561Z,11.03
2018-04-07T07:39:22.857Z,6.40
2018-04-07T07:41:51.112Z,12.47
2018-04-07T07:44:19.405Z,7.93
2018-04-07T07:46:47.736Z,9.13
2018-04-07T07:49:15.983Z,6.93
2018-04-07T07:51:44.345Z,6.13
2018-04-07T07:54:12.611Z,7.40
2018-04-07T07:56:40.885Z,8.90
2018-04-07T07:59:09.174Z,6.97
2018-04-07T08:01:37.432Z,6.87
2018-04-07T08:04:05.735Z,6.40
2018-04-07T08:06:34.007Z,7.47
2018-04-07T08:09:02.389Z,8.80
2018-04-07T08:11:30.640Z,7.30
2018-04-07T08:13:58.927Z,10.20
2018-04-07T08:16:27.183Z,9.23
2018-04-07T08:18:55.496Z,6.73
2018-04-07T08:21:23.755Z,7.70
2018-04-07T08:23:52.049Z,7.50
2018-04-07T08:26:20.305Z,9.60
2018-04-07T08:28:48.600Z,8.50
2018-04-07T08:31:16.868Z,7.37
2018-04-07T08:33:45.260Z,10.43
2018-04-07T08:36:13.536Z,7.03
2018-04-07T08:38:41.917Z,7.57
2018-04-07T08:41:10.194Z,8.50
2018-04-07T08:43:38.576Z,13.20
2018-04-07T08:46:06.900Z,8.93
2018-04-07T08:48:35.146Z,8.70
2018-04-07T08:51:03.647Z,10.13
2018-04-07T08:53:31.913Z,10.87
2018-04-07T08:56:00.186Z,9.63
2018-04-07T08:58:28.461Z,8.60
2018-04-07T09:00:56.726Z,7.20
2018-04-07T09:03:25.022Z,6.40
2018-04-07T09:05:53.289Z,7.27
2018-04-07T09:08:21.581Z,8.27
2018-04-07T09:10:50.708Z,11.20
2018-04-07T09:13:19.012Z,6.97
2018-04-07T09:15:47.273Z,9.00
2018-04-07T09:18:15.541Z,9.93
2018-04-07T09:20:43.832Z,11.40
2018-04-07T09:23:12.096Z,7.80
2018-04-07T09:25:40.380Z,6.83
2018-04-07T09:28:08.640Z,11.40
2018-04-07T09:30:36.947Z,6.10
2018-04-07T09:33:05.200Z,10.40
2018-04-07T09:35:33.493Z,8.87
2018-04-07T09:38:01.796Z,10.43
2018-04-07T09:40:30.066Z,9.60
2018-04-07T09:42:58.384Z,6.73
2018-04-07T09:45:26.729Z,7.97
2018-04-07T09:47:55.022Z,9.30
2018-04-07T09:50:23.387Z,8.73
2018-04-07T09:52:51.636Z,9.30
2018-04-07T09:55:19.936Z,11.70
2018-04-07T09:57:48.199Z,11.27
2018-04-07T10:00:16.498Z,8.40
2018-04-07T10:02:44.749Z,12.10
2018-04-07T10:05:13.206Z,10.53
2018-04-07T10:07:41.536Z,9.90
2018-04-07T10:10:09.814Z,8.43
2018-04-07T10:12:38.071Z,5.43
2018-04-07T10:15:06.379Z,7.57
2018-04-07T10:17:34.743Z,7.17
2018-04-07T10:20:03.145Z,7.10
2018-04-07T10:22:31.418Z,11.20
2018-04-07T10:24:59.824Z,7.93
2018-04-07T10:27:28.279Z,8.30
2018-04-07T10:29:56.565Z,8.80
2018-04-07T10:32:24.833Z,9.63
2018-04-07T10:34:53.190Z,7.77
2018-04-07T10:37:21.477Z,10.43
2018-04-07T10:39:49.759Z,10.07
2018-04-07T10:42:18.184Z,6.20
2018-04-07T10:44:47.316Z,8.93
2018-04-07T10:47:15.597Z,21.60
2018-04-07T10:49:43.875Z,13.57
2018-04-07T10:52:12.264Z,8.20
2018-04-07T10:54:40.551Z,7.50
2018-04-07T10:57:08.805Z,9.07
2018-04-07T10:59:37.197Z,10.30
2018-04-07T11:02:05.431Z,8.33
2018-04-07T11:04:33.725Z,11.63
2018-04-07T11:07:02.030Z,6.53
2018-04-07T11:09:30.292Z,9.50
2018-04-07T11:11:58.589Z,13.43
2018-04-07T11:14:26.850Z,12.00
2018-04-07T11:16:55.140Z,6.07
2018-04-07T11:19:23.414Z,6.77
2018-04-07T11:21:51.798Z,10.90
2018-04-07T11:24:20.065Z,9.27
2018-04-07T11:26:48.347Z,8.47
2018-04-07T11:29:16.626Z,11.20
2018-04-07T11:31:44.913Z,6.77
2018-04-07T11:34:13.285Z,8.00
2018-04-07T11:36:41.679Z,8.80
2018-04-07T11:39:09.956Z,7.03
2018-04-07T11:41:38.241Z,7.17
2018-04-07T11:44:06.505Z,8.20
2018-04-07T11:46:34.808Z,7.10
2018-04-07T11:49:03.837Z,9.40
2018-04-07T11:51:32.115Z,7.07
2018-04-07T11:54:00.426Z,7.67
2018-04-07T11:56:28.716Z,8.40
2018-04-07T11:58:56.985Z,7.33
2018-04-07T12:01:25.276Z,7.90
2018-04-07T12:03:53.548Z,6.40
2018-04-07T12:06:21.833Z,8.87
2018-04-07T12:08:50.118Z,7.60
2018-04-07T12:11:19.280Z,6.03
2018-04-07T12:13:47.559Z,6.17
2018-04-07T12:16:15.847Z,9.60
2018-04-07T12:18:44.113Z,7.10
2018-04-07T12:21:12.410Z,10.97
2018-04-07T12:23:40.768Z,6.77
2018-04-07T12:26:09.153Z,7.53
2018-04-07T12:28:37.527Z,11.23
2018-04-07T12:31:05.911Z,7.67
2018-04-07T12:33:34.173Z,6.50
2018-04-07T12:36:02.465Z,6.30
2018-04-07T12:38:30.737Z,5.67
2018-04-07T12:40:59.020Z,6.33
2018-04-07T12:43:27.280Z,5.30
2018-04-07T12:45:55.697Z,6.80
2018-04-07T12:48:23.960Z,7.13
2018-04-07T12:50:52.242Z,5.07
2018-04-07T12:53:20.525Z,9.03
2018-04-07T12:55:48.890Z,5.00
2018-04-07T12:58:17.192Z,8.80
2018-04-07T13:00:46.257Z,6.70
2018-04-07T13:03:14.640Z,8.97
2018-04-07T13:05:42.912Z,6.50
2018-04-07T13:08:11.266Z,5.37
2018-04-07T13:10:39.561Z,6.60
2018-04-07T13:13:07.854Z,5.53
2018-04-07T13:15:36.118Z,4.73
2018-04-07T13:18:04.510Z,5.87
2018-04-07T13:20:32.770Z,4.73
2018-04-07T13:23:01.053Z,8.23
2018-04-07T13:25:29.308Z,6.20
2018-04-07T13:27:57.592Z,8.23
2018-04-07T13:30:25.889Z,5.40
2018-04-07T13:32:54.274Z,4.80
2018-04-07T13:35:22.552Z,7.30
2018-04-07T13:37:50.861Z,5.27
2018-04-07T13:40:19.203Z,5.00
2018-04-07T13:42:47.504Z,5.67
2018-04-07T13:45:15.747Z,4.90
2018-04-07T13:47:44.028Z,6.20
2018-04-07T13:50:12.288Z,5.60
2018-04-07T13:52:40.581Z,5.17
2018-04-07T13:55:08.864Z,5.33
2018-04-07T13:57:37.145Z,7.23
2018-04-07T14:00:05.408Z,4.83
2018-04-07T14:02:33.707Z,5.50
2018-04-07T14:05:01.978Z,5.40
2018-04-07T14:07:30.264Z,4.57
2018-04-07T14:09:58.549Z,5.20
2018-04-07T14:12:26.911Z,4.83
2018-04-07T14:14:55.174Z,4.47
2018-04-07T14:17:23.470Z,4.93
2018-04-07T14:19:51.836Z,5.40
2018-04-07T14:22:20.116Z,4.93
2018-04-07T14:24:48.393Z,5.53
2018-04-07T14:27:16.677Z,5.23
2018-04-07T14:29:44.938Z,7.50
2018-04-07T14:32:13.226Z,4.60
2018-04-07T14:34:41.495Z,4.70
2018-04-07T14:37:09.788Z,5.40
2018-04-07T14:39:38.101Z,4.20
2018-04-07T14:42:07.251Z,4.80
2018-04-07T14:44:35.630Z,4.27
2018-04-07T14:47:03.902Z,4.73
2018-04-07T14:49:32.196Z,4.70
2018-04-07T14:52:01.969Z,4.73
2018-04-07T14:54:30.284Z,4.40
2018-04-07T14:56:58.565Z,4.60
2018-04-07T14:59:27.033Z,4.67
2018-04-07T15:01:55.302Z,5.20
2018-04-07T15:04:23.587Z,5.97
2018-04-07T15:06:51.867Z,5.27
2018-04-07T15:09:20.145Z,5.80
2018-04-07T15:11:48.524Z,5.33
2018-04-07T15:14:16.932Z,7.63
2018-04-07T15:16:45.985Z,6.47
2018-04-07T15:19:14.291Z,4.77
2018-04-07T15:21:42.550Z,4.43
2018-04-07T15:24:10.868Z,5.60
2018-04-07T15:26:39.914Z,4.70
2018-04-07T15:29:09.146Z,5.40
2018-04-07T15:31:38.911Z,4.60
2018-04-07T15:34:07.226Z,6.23
2018-04-07T15:36:35.493Z,6.10
2018-04-07T15:39:03.776Z,5.77
2018-04-07T15:41:32.146Z,6.57
2018-04-07T15:44:00.437Z,5.40
2018-04-07T15:46:28.817Z,4.40
2018-04-07T15:48:57.104Z,4.37
2018-04-07T15:51:25.460Z,4.47
2018-04-07T15:53:53.835Z,8.87
2018-04-07T15:56:22.117Z,4.70
2018-04-07T15:58:50.399Z,3.80
2018-04-07T16:01:18.676Z,6.00
2018-04-07T16:03:46.969Z,5.80
2018-04-07T16:06:15.225Z,5.47
2018-04-07T16:08:43.511Z,4.63
2018-04-07T16:11:11.782Z,4.93
2018-04-07T16:13:40.058Z,7.30
2018-04-07T16:16:08.333Z,5.00
2018-04-07T16:18:36.712Z,4.57
2018-04-07T16:21:04.989Z,4.80
2018-04-07T16:23:33.272Z,4.77
2018-04-07T16:26:01.546Z,7.40
2018-04-07T16:28:29.824Z,4.90
2018-04-07T16:30:58.160Z,6.07
2018-04-07T16:33:26.425Z,9.07
2018-04-07T16:35:55.593Z,8.53
2018-04-07T16:38:23.859Z,11.40
2018-04-07T16:40:52.151Z,6.10
2018-04-07T16:43:20.511Z,5.97
2018-04-07T16:45:48.788Z,8.53
2018-04-07T16:48:17.065Z,5.63
2018-04-07T16:50:45.374Z,6.03
2018-04-07T16:53:13.632Z,5.57
2018-04-07T16:55:41.911Z,6.17
2018-04-07T16:58:10.273Z,7.63
2018-04-07T17:00:38.656Z,7.73
2018-04-07T17:03:06.899Z,8.47
2018-04-07T17:05:35.176Z,6.57
2018-04-07T17:08:03.433Z,5.83
2018-04-07T17:10:32.596Z,7.97
2018-04-07T17:13:00.873Z,7.07
2018-04-07T17:15:29.203Z,8.33
2018-04-07T17:17:57.519Z,7.00
2018-04-07T17:20:25.810Z,7.73
2018-04-07T17:22:54.889Z,9.07
2018-04-07T17:25:23.188Z,10.07
2018-04-07T17:27:51.546Z,18.23
2018-04-07T17:30:19.934Z,10.27
2018-04-07T17:32:48.303Z,15.33
2018-04-07T17:35:16.636Z,14.20
2018-04-07T17:37:45.032Z,10.13
2018-04-07T17:40:13.313Z,10.10
2018-04-07T17:42:41.588Z,11.27
2018-04-07T17:45:09.882Z,10.77
2018-04-07T17:47:38.135Z,9.00
2018-04-07T17:50:06.411Z,9.97
2018-04-07T17:52:34.730Z,8.90
2018-04-07T17:55:03.026Z,12.07
2018-04-07T17:57:32.067Z,9.67
2018-04-07T18:00:00.401Z,9.87
2018-04-07T18:02:28.761Z,10.50
2018-04-07T18:04:57.049Z,10.63
2018-04-07T18:07:25.328Z,9.03
2018-04-07T18:09:53.628Z,9.67
2018-04-07T18:12:22.788Z,10.17
2018-04-07T18:14:51.081Z,10.47
2018-04-07T18:17:19.551Z,9.20
2018-04-07T18:19:47.798Z,11.83
2018-04-07T18:22:16.088Z,13.90
2018-04-07T18:24:44.357Z,8.33
2018-04-07T18:27:12.753Z,11.23
2018-04-07T18:29:41.022Z,11.40
2018-04-07T18:32:09.316Z,10.80
2018-04-07T18:34:37.594Z,18.00
2018-04-07T18:37:05.881Z,10.17
2018-04-07T18:39:34.235Z,12.10
2018-04-07T18:42:02.626Z,14.47
2018-04-07T18:44:32.413Z,10.90
2018-04-07T18:47:00.714Z,13.80
2018-04-07T18:49:29.053Z,13.63
2018-04-07T18:51:57.352Z,13.43
2018-04-07T18:54:25.614Z,12.90
2018-04-07T18:56:53.906Z,13.03
2018-04-07T18:59:22.174Z,12.07
2018-04-07T19:01:50.456Z,11.70
2018-04-07T19:04:18.734Z,11.63
2018-04-07T19:06:47.740Z,11.10
2018-04-07T19:09:16.009Z,11.47
2018-04-07T19:11:44.293Z,14.70
2018-04-07T19:14:12.552Z,13.43
2018-04-07T19:16:40.853Z,16.13
2018-04-07T19:19:09.116Z,15.13
2018-04-07T19:21:37.418Z,17.70
2018-04-07T19:24:05.796Z,16.87
2018-04-07T19:26:34.090Z,14.33
2018-04-07T19:29:02.425Z,16.13
2018-04-07T19:31:30.830Z,14.70
2018-04-07T19:33:59.208Z,13.60
2018-04-07T19:36:27.489Z,12.97
2018-04-07T19:38:55.780Z,15.80
2018-04-07T19:43:58.740Z,16.10
2018-04-07T19:46:27.048Z,14.23
2018-04-07T19:48:55.339Z,15.97
2018-04-07T19:51:23.633Z,16.63
2018-04-07T19:53:52.672Z,16.00
2018-04-07T19:56:21.064Z,17.00
2018-04-07T19:58:49.346Z,15.40
2018-04-07T20:01:17.664Z,18.53
2018-04-07T20:03:46.012Z,15.30
2018-04-07T20:06:14.316Z,20.47
2018-04-07T20:08:42.776Z,22.07
2018-04-07T20:11:11.256Z,18.40
2018-04-07T20:13:39.549Z,15.30
2018-04-07T20:16:07.847Z,16.30
2018-04-07T20:18:37.002Z,20.70
2018-04-07T20:21:05.255Z,14.30
2018-04-07T20:23:33.762Z,17.77
2018-04-07T20:26:02.011Z,19.73
2018-04-07T20:28:30.320Z,20.00
2018-04-07T20:30:58.579Z,19.70
2018-04-07T20:33:26.914Z,27.07
2018-04-07T20:35:55.968Z,19.60
2018-04-07T20:38:24.240Z,16.20
2018-04-07T20:40:54.569Z,18.33
2018-04-07T20:43:22.950Z,15.90
2018-04-07T20:45:51.328Z,18.77
2018-04-07T20:48:19.590Z,16.50
2018-04-07T20:50:47.991Z,19.27
2018-04-07T20:53:16.271Z,17.43
2018-04-07T20:55:44.744Z,17.20
2018-04-07T20:58:13.035Z,18.20
2018-04-07T21:00:41.401Z,20.33
2018-04-07T21:03:09.781Z,19.40
2018-04-07T21:05:38.100Z,17.27
2018-04-07T21:08:07.129Z,19.00
2018-04-07T21:10:35.476Z,18.50
2018-04-07T21:13:04.507Z,18.37
2018-04-07T21:15:32.906Z,19.10
2018-04-07T21:18:01.168Z,16.17
2018-04-07T21:20:29.455Z,19.07
2018-04-07T21:22:57.733Z,18.70
2018-04-07T21:25:26.134Z,18.63
2018-04-07T21:27:54.501Z,17.00
2018-04-07T21:30:22.752Z,17.17
2018-04-07T21:32:51.058Z,18.10
2018-04-07T21:35:19.333Z,16.43
2018-04-07T21:37:47.665Z,15.70
2018-04-07T21:40:15.934Z,14.47
2018-04-07T21:42:44.263Z,16.83
2018-04-07T21:45:12.511Z,17.80
2018-04-07T21:47:40.820Z,13.80
2018-04-07T21:50:09.083Z,16.60
2018-04-07T21:52:37.382Z,18.37
2018-04-07T21:55:05.748Z,18.63
2018-04-07T21:57:34.049Z,14.70
2018-04-07T22:00:02.329Z,15.47
2018-04-07T22:02:30.652Z,15.87
2018-04-07T22:04:58.900Z,16.60
2018-04-07T22:07:27.960Z,18.30
2018-04-07T22:09:56.236Z,16.73
2018-04-07T22:12:24.504Z,14.90
2018-04-07T22:14:52.888Z,14.13
2018-04-07T22:17:21.144Z,14.00
2018-04-07T22:19:49.445Z,20.00
2018-04-07T22:22:17.718Z,21.57
2018-04-07T22:24:46.007Z,22.53
2018-04-07T22:27:14.277Z,17.63
2018-04-07T22:29:42.563Z,15.70
2018-04-07T22:32:10.831Z,16.43
2018-04-07T22:34:39.210Z,14.97
2018-04-07T22:37:07.588Z,14.70
2018-04-07T22:39:35.888Z,18.00
2018-04-07T22:42:04.162Z,14.50
2018-04-07T22:44:32.478Z,13.50
2018-04-07T22:47:00.748Z,12.93
2018-04-07T22:49:29.041Z,18.90
2018-04-07T22:51:57.308Z,16.90
2018-04-07T22:54:25.645Z,16.03
2018-04-07T22:56:54.011Z,14.97
2018-04-07T22:59:22.296Z,19.40
2018-04-07T23:01:50.577Z,13.60
2018-04-07T23:04:18.872Z,13.13
2018-04-07T23:06:47.910Z,13.50
2018-04-07T23:09:16.316Z,14.80
2018-04-07T23:11:44.566Z,15.10
2018-04-07T23:14:12.959Z,13.10
2018-04-07T23:16:41.454Z,14.00
2018-04-07T23:19:09.717Z,12.83
2018-04-07T23:21:38.105Z,13.77
2018-04-07T23:24:06.381Z,12.80
2018-04-07T23:26:34.675Z,12.40
2018-04-07T23:29:02.942Z,17.40
2018-04-07T23:31:31.231Z,14.60
2018-04-07T23:33:59.701Z,13.70
2018-04-07T23:36:28.092Z,13.30
2018-04-07T23:38:57.177Z,14.50
2018-04-07T23:41:25.661Z,18.00
2018-04-07T23:43:53.921Z,14.47
2018-04-07T23:46:22.206Z,14.83
2018-04-07T23:48:50.485Z,13.27
2018-04-07T23:51:18.805Z,12.90
2018-04-07T23:53:47.832Z,15.23
2018-04-07T23:56:16.145Z,11.37
2018-04-07T23:58:44.421Z,11.47
